Urb Sagrado Corazon, Puerto Rico
Current Conditions -  °F | °C
As of 7:45 AM on Sunday 23 Nov 2014 (Local Time) from TJIG Reporting Station
Broken Clouds Broken Clouds  
Wind Chill: 79°   Ceiling: 6000
Heat Index: 82°   Visibility: 10mi
Dew Point: 72°   Wind: 7mph
Humidity: 78%   Direction: 140°SE
Pressure: 30.05"   Gusts: NA
Location:  18.0112°N, 66.3514°W
Report Text: TJIG 231145Z 14006KT 10SM SCT025 BKN060 26/22 A3005 RMK RY09 IN USE ATIS B
Loading
Personal Weather Stations






























Interactive Weather Map New forecast layout! Learn more

10-Day Weather Forecast

Advertisements
Track Severe Weather on mobile